Terminal Aerodrome Forecast
Issued by NWS Wilmington, OH

Current Version | Previous Version | Graphics & Text | Print | Product List | Glossary On
Versions: 1 2 3 4 5 6 7 8 9 10 11 12 13 14 15 16 17 18 19 20 21 22 23 24 25 26 27 28 29 30 31 32
000
FTUS41 KILN 201100
TAFCVG
TAF
KCVG 201138Z 2012/2118 22004KT P6SM BKN035
      TEMPO 2012/2013 BKN028
     FM201400 26007KT P6SM SCT025
     FM201700 27010G16KT P6SM SCT040
     FM210000 24005KT P6SM SCT100 SCT250
     FM210900 22005KT P6SM -SHRA VCTS OVC040CB=

USA.gov is the U.S. government's official web portal to all federal, state and local government web resources and services.